createdAt,value
2022-12-08T00:01:13.491Z,98942.17
2022-12-08T00:04:15.141Z,98941.66
2022-12-08T00:07:36.602Z,98937.46
2022-12-08T00:10:48.815Z,98941.60
2022-12-08T00:13:51.482Z,98943.22
2022-12-08T00:16:53.746Z,98939.91
2022-12-08T00:19:55.438Z,98941.92
2022-12-08T00:22:56.940Z,98941.92
2022-12-08T00:26:03.268Z,98943.13
2022-12-08T00:29:05.305Z,98947.45
2022-12-08T00:32:07.140Z,98950.08
2022-12-08T00:35:09.188Z,98957.32
2022-12-08T00:38:11.125Z,98960.63
2022-12-08T00:41:15.506Z,98957.02
2022-12-08T00:44:21.124Z,98961.30
2022-12-08T00:47:24.990Z,98968.02
2022-12-08T00:50:26.868Z,98963.99
2022-12-08T00:53:28.470Z,98964.70
2022-12-08T00:56:30.214Z,98960.45
2022-12-08T00:59:31.815Z,98961.80
2022-12-08T01:02:34.508Z,98960.92
2022-12-08T01:05:36.310Z,98962.27
2022-12-08T01:08:38.764Z,98963.25
2022-12-08T01:11:40.453Z,98966.05
2022-12-08T01:14:42.068Z,98969.94
2022-12-08T01:17:43.759Z,98972.27
2022-12-08T01:20:45.395Z,98973.62
2022-12-08T01:23:47.025Z,98976.09
2022-12-08T01:26:51.525Z,98979.58
2022-12-08T01:29:53.079Z,98975.33
2022-12-08T01:32:54.676Z,98974.29
2022-12-08T01:35:56.455Z,98972.42
2022-12-08T01:39:00.512Z,98973.46
2022-12-08T01:42:02.127Z,98973.34
2022-12-08T01:45:28.865Z,98975.27
2022-12-08T01:48:30.583Z,98974.23
2022-12-08T01:51:33.093Z,98972.90
2022-12-08T01:54:38.512Z,98969.10
2022-12-08T01:57:44.920Z,98967.80
2022-12-08T02:00:46.611Z,98964.11
2022-12-08T02:03:50.300Z,98966.56
2022-12-08T02:06:52.575Z,98964.92
2022-12-08T02:09:54.880Z,98967.23
2022-12-08T02:12:58.506Z,98969.52
2022-12-08T02:16:27.615Z,98972.32
2022-12-08T02:20:00.859Z,98975.13
2022-12-08T02:23:14.870Z,98974.84
2022-12-08T02:26:42.801Z,98973.70
2022-12-08T02:30:20.632Z,98973.89
2022-12-08T02:33:49.204Z,98974.56
2022-12-08T02:37:16.187Z,98973.66
2022-12-08T02:40:33.293Z,98979.75
2022-12-08T02:43:55.569Z,98978.60
2022-12-08T02:47:00.396Z,98981.58
2022-12-08T02:50:02.267Z,98982.36
2022-12-08T02:56:25.902Z,98978.84
2022-12-08T02:59:33.581Z,98975.64
2022-12-08T03:03:09.976Z,98978.00
2022-12-08T03:06:31.750Z,98980.06
2022-12-08T03:09:45.694Z,98980.42
2022-12-08T03:13:07.925Z,98979.41
2022-12-08T03:16:11.505Z,98976.70
2022-12-08T03:19:18.595Z,98974.08
2022-12-08T03:22:24.051Z,98976.18
2022-12-08T03:25:30.892Z,98977.15
2022-12-08T03:28:32.722Z,98981.12
2022-12-08T03:31:34.835Z,98979.77
2022-12-08T03:34:37.236Z,98980.94
2022-12-08T03:37:40.497Z,98979.08
2022-12-08T03:40:43.077Z,98977.19
2022-12-08T03:43:50.075Z,98976.63
2022-12-08T03:46:51.805Z,98976.48
2022-12-08T03:49:53.595Z,98979.04
2022-12-08T03:52:55.357Z,98974.96
2022-12-08T03:55:57.094Z,98976.63
2022-12-08T03:58:59.227Z,98975.34
2022-12-08T04:02:01.101Z,98973.26
2022-12-08T04:05:07.088Z,98973.77
2022-12-08T04:08:08.854Z,98971.88
2022-12-08T04:11:11.300Z,98974.43
2022-12-08T04:14:13.061Z,98972.17
2022-12-08T04:17:14.988Z,98972.29
2022-12-08T04:20:16.686Z,98970.08
2022-12-08T04:23:18.587Z,98968.18
2022-12-08T04:26:20.186Z,98969.20
2022-12-08T04:29:21.898Z,98967.83
2022-12-08T04:32:23.490Z,98975.02
2022-12-08T04:35:25.809Z,98972.84
2022-12-08T04:38:27.606Z,98975.06
2022-12-08T04:41:29.155Z,98973.35
2022-12-08T04:44:31.036Z,98969.97
2022-12-08T04:47:32.633Z,98969.44
2022-12-08T04:50:34.341Z,98965.09
2022-12-08T04:53:35.900Z,98959.90
2022-12-08T04:56:37.649Z,98961.73
2022-12-08T04:59:39.285Z,98963.62
2022-12-08T05:02:40.998Z,98961.64
2022-12-08T05:05:43.508Z,98961.05
2022-12-08T05:08:45.212Z,98964.32
2022-12-08T05:11:49.075Z,98972.85
2022-12-08T05:14:51.226Z,98970.98
2022-12-08T05:17:53.197Z,98970.63
2022-12-08T05:20:54.835Z,98976.68
2022-12-08T05:23:56.504Z,98973.55
2022-12-08T05:26:58.139Z,98968.75
2022-12-08T05:30:00.057Z,98967.12
2022-12-08T05:33:01.868Z,98965.83
2022-12-08T05:36:03.791Z,98967.13
2022-12-08T05:39:05.764Z,98965.77
2022-12-08T05:42:07.412Z,98969.60
2022-12-08T05:45:09.812Z,98976.14
2022-12-08T05:48:11.511Z,98979.81
2022-12-08T05:51:20.043Z,98980.11
2022-12-08T05:54:21.698Z,98981.33
2022-12-08T05:57:23.360Z,98982.59
2022-12-08T06:00:25.117Z,98983.67
2022-12-08T06:03:26.827Z,98982.41
2022-12-08T06:06:29.826Z,98984.94
2022-12-08T06:09:31.572Z,98986.71
2022-12-08T06:12:33.179Z,98989.04
2022-12-08T06:15:36.248Z,98990.20
2022-12-08T06:18:37.923Z,98989.31
2022-12-08T06:21:39.758Z,98987.95
2022-12-08T06:24:41.440Z,98996.25
2022-12-08T06:27:43.061Z,99004.33
2022-12-08T06:30:45.020Z,99007.98
2022-12-08T06:33:47.414Z,99012.17
2022-12-08T06:36:49.317Z,99013.52
2022-12-08T06:39:51.887Z,99016.20
2022-12-08T06:42:53.457Z,99015.95
2022-12-08T06:45:55.563Z,99012.86
2022-12-08T06:48:58.352Z,99015.20
2022-12-08T06:52:00.092Z,99007.48
2022-12-08T06:55:01.798Z,99010.01
2022-12-08T06:58:03.486Z,99015.76
2022-12-08T07:01:10.389Z,99021.00
2022-12-08T07:04:12.140Z,99027.62
2022-12-08T07:07:13.737Z,99027.60
2022-12-08T07:10:15.370Z,99023.66
2022-12-08T07:13:17.022Z,99025.34
2022-12-08T07:16:18.804Z,99029.75
2022-12-08T07:19:21.409Z,99031.21
2022-12-08T07:22:23.015Z,99029.77
2022-12-08T07:25:24.669Z,99035.64
2022-12-08T07:28:26.328Z,99039.67
2022-12-08T07:31:29.041Z,99037.77
2022-12-08T07:34:30.780Z,99043.02
2022-12-08T07:37:35.565Z,99048.27
2022-12-08T07:40:39.156Z,99046.02
2022-12-08T07:43:41.724Z,99042.00
2022-12-08T07:46:43.469Z,99044.46
2022-12-08T07:49:45.082Z,99042.64
2022-12-08T07:52:46.704Z,99044.06
2022-12-08T07:55:48.324Z,99043.45
2022-12-08T07:58:50.190Z,99048.55
2022-12-08T08:02:13.192Z,99048.91
2022-12-08T08:05:13.580Z,99046.55
2022-12-08T08:08:15.342Z,99051.74
2022-12-08T08:11:21.360Z,99049.27
2022-12-08T08:14:23.452Z,99042.41
2022-12-08T08:17:25.224Z,99045.34
2022-12-08T08:20:27.081Z,99043.83
2022-12-08T08:23:28.694Z,99042.12
2022-12-08T08:26:30.387Z,99040.13
2022-12-08T08:29:32.152Z,99036.17
2022-12-08T08:32:34.313Z,99037.02
2022-12-08T08:35:36.055Z,99038.95
2022-12-08T08:38:40.262Z,99036.38
2022-12-08T08:41:41.951Z,99040.73
2022-12-08T08:44:43.565Z,99041.95
2022-12-08T08:47:45.330Z,99042.66
2022-12-08T08:50:46.865Z,99039.33
2022-12-08T08:53:48.572Z,99037.58
2022-12-08T08:56:50.120Z,99033.98
2022-12-08T08:59:51.760Z,99030.18
2022-12-08T09:02:53.469Z,99029.02
2022-12-08T09:05:55.604Z,99025.48
2022-12-08T09:08:57.337Z,99024.09
2022-12-08T09:11:58.945Z,99026.92
2022-12-08T09:15:00.552Z,99020.63
2022-12-08T09:18:02.455Z,99017.57
2022-12-08T09:21:09.298Z,99016.65
2022-12-08T09:24:15.947Z,99016.27
2022-12-08T09:27:17.712Z,99018.24
2022-12-08T09:30:19.378Z,99016.27
2022-12-08T09:33:21.133Z,99009.53
2022-12-08T09:36:23.079Z,99001.92
2022-12-08T09:39:24.773Z,98998.20
2022-12-08T09:42:58.256Z,98997.65
2022-12-08T09:46:01.113Z,98995.33
2022-12-08T09:49:03.854Z,98994.90
2022-12-08T09:52:06.364Z,98994.28
2022-12-08T09:55:24.802Z,98994.16
2022-12-08T09:58:41.623Z,98990.56
2022-12-08T10:01:43.406Z,98987.70
2022-12-08T10:04:45.179Z,98980.50
2022-12-08T10:08:04.102Z,98974.39
2022-12-08T10:11:12.486Z,98973.48
2022-12-08T10:14:29.339Z,98970.35
2022-12-08T10:17:35.017Z,98970.23
2022-12-08T10:20:40.520Z,98966.36
2022-12-08T10:23:45.245Z,98963.39
2022-12-08T10:26:47.132Z,98958.48
2022-12-08T10:29:49.011Z,98957.71
2022-12-08T10:32:53.086Z,98955.42
2022-12-08T10:35:58.581Z,98953.27
2022-12-08T10:39:01.408Z,98949.84
2022-12-08T10:42:21.877Z,98952.96
2022-12-08T10:45:32.559Z,98955.22
2022-12-08T10:48:34.375Z,98952.71
2022-12-08T10:51:42.861Z,98953.11
2022-12-08T10:54:44.573Z,98954.71
2022-12-08T10:57:46.618Z,98956.96
2022-12-08T11:00:48.339Z,98948.64
2022-12-08T11:03:52.887Z,98945.67
2022-12-08T11:06:54.817Z,98945.37
2022-12-08T11:09:58.290Z,98945.11
2022-12-08T11:13:06.111Z,98945.88
2022-12-08T11:16:08.664Z,98940.85
2022-12-08T11:19:16.964Z,98935.73
2022-12-08T11:22:24.223Z,98941.27
2022-12-08T11:25:27.638Z,98936.76
2022-12-08T11:28:29.497Z,98938.17
2022-12-08T11:31:35.202Z,98934.77
2022-12-08T11:34:49.655Z,98933.08
2022-12-08T11:37:51.888Z,98936.70
2022-12-08T11:40:57.747Z,98934.89
2022-12-08T11:44:07.846Z,98938.02
2022-12-08T11:47:21.229Z,98939.74
2022-12-08T11:50:28.893Z,98933.23
2022-12-08T11:53:38.092Z,98935.14
2022-12-08T11:56:45.948Z,98939.30
2022-12-08T11:59:50.608Z,98937.27
2022-12-08T12:03:06.440Z,98932.67
2022-12-08T12:06:53.757Z,98929.60
2022-12-08T12:10:05.868Z,98928.91
2022-12-08T12:13:48.775Z,98925.23
2022-12-08T12:16:54.700Z,98931.16
2022-12-08T12:19:59.641Z,98934.09
2022-12-08T12:23:21.637Z,98934.61
2022-12-08T12:26:28.859Z,98934.39
2022-12-08T12:29:34.057Z,98933.84
2022-12-08T12:32:45.745Z,98929.03
2022-12-08T12:35:50.488Z,98926.44
2022-12-08T12:39:06.285Z,98923.52
2022-12-08T12:42:07.992Z,98913.23
2022-12-08T12:45:12.536Z,98915.84
2022-12-08T12:48:21.899Z,98913.02
2022-12-08T12:51:39.114Z,98909.36
2022-12-08T12:55:10.066Z,98904.66
2022-12-08T12:58:42.636Z,98909.89
2022-12-08T13:01:57.367Z,98904.90
2022-12-08T13:04:59.140Z,98903.68
2022-12-08T13:08:01.346Z,98909.46
2022-12-08T13:11:05.960Z,98905.19
2022-12-08T13:14:26.726Z,98900.00
2022-12-08T13:17:31.192Z,98904.45
2022-12-08T13:20:41.819Z,98900.98
2022-12-08T13:23:47.090Z,98897.63
2022-12-08T13:27:04.019Z,98898.05
2022-12-08T13:30:40.235Z,98898.87
2022-12-08T13:33:42.049Z,98897.14
2022-12-08T13:36:47.755Z,98893.79
2022-12-08T13:39:56.537Z,98887.86
2022-12-08T13:43:17.004Z,98892.54
2022-12-08T13:57:10.772Z,98878.77
2022-12-08T14:00:20.098Z,98879.95
2022-12-08T14:03:21.845Z,98880.41
2022-12-08T14:06:39.370Z,98881.98
2022-12-08T14:09:41.690Z,98881.00
2022-12-08T14:12:47.086Z,98882.26
2022-12-08T14:15:48.874Z,98878.25
2022-12-08T14:18:51.383Z,98882.79
2022-12-08T14:22:09.828Z,98881.83
2022-12-08T14:25:15.781Z,98882.77
2022-12-08T14:28:17.554Z,98884.66
2022-12-08T14:31:19.127Z,98887.24
2022-12-08T14:34:20.817Z,98889.16
2022-12-08T14:37:23.191Z,98888.88
2022-12-08T14:40:29.602Z,98883.95
2022-12-08T14:43:32.704Z,98884.68
2022-12-08T14:46:34.628Z,98886.77
2022-12-08T14:49:39.085Z,98891.27
2022-12-08T14:52:43.801Z,98891.83
2022-12-08T14:55:47.815Z,98889.15
2022-12-08T14:58:51.763Z,98884.27
2022-12-08T15:02:10.472Z,98885.52
2022-12-08T15:05:17.846Z,98889.73
2022-12-08T15:08:19.684Z,98887.55
2022-12-08T15:11:21.575Z,98888.59
2022-12-08T15:14:34.975Z,98885.91
2022-12-08T15:18:16.599Z,98876.56
2022-12-08T15:21:18.423Z,98876.95
2022-12-08T15:24:20.319Z,98870.70
2022-12-08T15:27:24.306Z,98867.02
2022-12-08T15:30:28.948Z,98870.00
2022-12-08T15:33:30.834Z,98870.89
2022-12-08T15:36:32.443Z,98870.92
2022-12-08T15:39:38.178Z,98867.91
2022-12-08T15:42:39.964Z,98868.63
2022-12-08T15:45:50.513Z,98865.59
2022-12-08T15:48:58.314Z,98872.81
2022-12-08T15:52:10.825Z,98874.23
2022-12-08T15:55:15.494Z,98873.92
2022-12-08T16:01:45.491Z,98872.81
2022-12-08T16:05:33.341Z,98865.68
2022-12-08T16:08:44.691Z,98863.03
2022-12-08T16:12:11.110Z,98866.34
2022-12-08T16:18:37.177Z,98860.13
2022-12-08T16:25:14.778Z,98863.42
2022-12-08T16:31:41.849Z,98857.98
2022-12-08T16:34:43.619Z,98860.52
2022-12-08T16:37:45.428Z,98864.10
2022-12-08T16:41:06.448Z,98858.52
2022-12-08T16:44:08.057Z,98857.75
2022-12-08T16:47:09.880Z,98856.50
2022-12-08T16:50:14.440Z,98847.14
2022-12-08T16:53:16.181Z,98857.38
2022-12-08T16:56:18.481Z,98857.56
2022-12-08T16:59:20.263Z,98854.88
2022-12-08T17:02:22.770Z,98851.25
2022-12-08T17:05:24.963Z,98851.59
2022-12-08T17:08:27.359Z,98852.27
2022-12-08T17:11:37.539Z,98854.02
2022-12-08T17:14:43.222Z,98851.30
2022-12-08T17:17:45.231Z,98847.06
2022-12-08T17:20:46.928Z,98849.77
2022-12-08T17:23:48.616Z,98847.73
2022-12-08T17:26:51.860Z,98844.64
2022-12-08T17:29:53.765Z,98847.04
2022-12-08T17:32:55.407Z,98847.65
2022-12-08T17:35:57.189Z,98850.36
2022-12-08T17:38:59.298Z,98850.48
2022-12-08T17:42:00.952Z,98850.29
2022-12-08T17:45:02.711Z,98849.09
2022-12-08T17:48:04.680Z,98850.20
2022-12-08T17:51:08.939Z,98850.17
2022-12-08T17:54:10.659Z,98852.80
2022-12-08T17:57:12.276Z,98851.27
2022-12-08T18:00:14.314Z,98852.23
2022-12-08T18:03:16.640Z,98853.93
2022-12-08T18:06:18.230Z,98849.62
2022-12-08T18:09:20.245Z,98842.55
2022-12-08T18:12:23.760Z,98835.19
2022-12-08T18:15:26.201Z,98834.11
2022-12-08T18:18:27.942Z,98829.72
2022-12-08T18:21:29.448Z,98828.34
2022-12-08T18:24:31.434Z,98828.22
2022-12-08T18:27:37.282Z,98828.58
2022-12-08T18:30:41.858Z,98823.42
2022-12-08T18:33:44.956Z,98820.55
2022-12-08T18:36:47.452Z,98816.95
2022-12-08T18:39:49.134Z,98813.59
2022-12-08T18:42:50.762Z,98807.80
2022-12-08T18:46:00.893Z,98807.91
2022-12-08T18:49:02.678Z,98805.05
2022-12-08T18:52:04.914Z,98804.80
2022-12-08T18:55:07.693Z,98798.91
2022-12-08T18:58:11.100Z,98794.68
2022-12-08T19:01:15.941Z,98800.73
2022-12-08T19:04:28.262Z,98798.56
2022-12-08T19:07:30.639Z,98795.75
2022-12-08T19:10:32.241Z,98796.13
2022-12-08T19:13:33.872Z,98803.89
2022-12-08T19:16:35.907Z,98803.55
2022-12-08T19:19:37.662Z,98801.80
2022-12-08T19:22:39.224Z,98800.21
2022-12-08T19:25:41.298Z,98790.38
2022-12-08T19:28:43.105Z,98786.98
2022-12-08T19:31:44.851Z,98796.15
2022-12-08T19:34:46.937Z,98794.29
2022-12-08T19:37:48.696Z,98793.45
2022-12-08T19:41:09.028Z,98793.09
2022-12-08T19:44:29.073Z,98786.96
2022-12-08T19:47:30.866Z,98790.31
2022-12-08T19:50:39.221Z,98790.40
2022-12-08T19:53:47.360Z,98787.30
2022-12-08T19:56:49.534Z,98783.59
2022-12-08T19:59:56.154Z,98778.40
2022-12-08T20:02:59.891Z,98778.45
2022-12-08T20:06:01.954Z,98778.52
2022-12-08T20:09:03.839Z,98778.67
2022-12-08T20:12:06.191Z,98775.73
2022-12-08T20:15:10.211Z,98780.41
2022-12-08T20:18:13.236Z,98777.75
2022-12-08T20:21:14.858Z,98786.39
2022-12-08T20:24:17.146Z,98782.86
2022-12-08T20:27:19.023Z,98783.98
2022-12-08T20:30:20.994Z,98783.04
2022-12-08T20:33:22.751Z,98777.11
2022-12-08T20:36:24.479Z,98772.55
2022-12-08T20:39:26.307Z,98772.45
2022-12-08T20:42:28.341Z,98773.38
2022-12-08T20:45:30.330Z,98778.34
2022-12-08T20:48:32.087Z,98778.66
2022-12-08T20:51:34.395Z,98782.73
2022-12-08T20:54:37.361Z,98783.09
2022-12-08T20:57:39.223Z,98782.09
2022-12-08T21:00:41.104Z,98779.86
2022-12-08T21:03:44.013Z,98779.35
2022-12-08T21:06:46.314Z,98780.55
2022-12-08T21:09:48.358Z,98779.17
2022-12-08T21:12:50.421Z,98785.84
2022-12-08T21:15:52.404Z,98781.48
2022-12-08T21:18:54.423Z,98779.98
2022-12-08T21:21:56.379Z,98777.89
2022-12-08T21:24:58.518Z,98774.65
2022-12-08T21:28:00.228Z,98773.05
2022-12-08T21:31:05.651Z,98776.60
2022-12-08T21:34:07.626Z,98776.59
2022-12-08T21:37:09.791Z,98778.40
2022-12-08T21:40:12.252Z,98778.15
2022-12-08T21:43:14.623Z,98776.05
2022-12-08T21:46:17.431Z,98777.05
2022-12-08T21:49:19.612Z,98774.40
2022-12-08T21:52:21.455Z,98774.15
2022-12-08T21:55:23.950Z,98770.48
2022-12-08T21:58:26.398Z,98771.19
2022-12-08T22:01:28.598Z,98767.28
2022-12-08T22:04:30.663Z,98766.17
2022-12-08T22:07:32.682Z,98771.55
2022-12-08T22:10:34.600Z,98768.39
2022-12-08T22:13:38.653Z,98768.52
2022-12-08T22:16:40.550Z,98764.90
2022-12-08T22:19:42.617Z,98760.27
2022-12-08T22:22:44.699Z,98754.98
2022-12-08T22:25:56.231Z,98756.02
2022-12-08T22:28:58.056Z,98754.48
2022-12-08T22:32:00.097Z,98756.36
2022-12-08T22:35:01.956Z,98752.76
2022-12-08T22:38:03.802Z,98756.51
2022-12-08T22:41:06.532Z,98755.83
2022-12-08T22:44:09.509Z,98747.66
2022-12-08T22:47:11.575Z,98748.35
2022-12-08T22:50:14.038Z,98749.16
2022-12-08T22:53:15.744Z,98750.31
2022-12-08T22:56:18.115Z,98746.54
2022-12-08T22:59:19.990Z,98743.11
2022-12-08T23:02:21.547Z,98733.37
2022-12-08T23:05:23.407Z,98735.92
2022-12-08T23:08:25.481Z,98738.50
2022-12-08T23:11:30.789Z,98744.33
2022-12-08T23:14:32.554Z,98746.30
2022-12-08T23:17:34.753Z,98746.71
2022-12-08T23:20:36.662Z,98744.86
2022-12-08T23:23:38.562Z,98748.63
2022-12-08T23:26:40.264Z,98745.44
2022-12-08T23:29:42.008Z,98747.66
2022-12-08T23:32:43.696Z,98742.05
2022-12-08T23:35:45.913Z,98742.97
2022-12-08T23:38:48.174Z,98743.14
2022-12-08T23:41:50.581Z,98740.90
2022-12-08T23:44:52.420Z,98740.91
2022-12-08T23:47:54.614Z,98740.59
2022-12-08T23:50:57.188Z,98737.67
2022-12-08T23:53:58.841Z,98734.41
2022-12-08T23:57:00.712Z,98727.41
